KMLJ

Baldwin County Airport

Milledgeville, Georgia, USA

KMLJ 110855Z AUTO 00000KT 10SM CLR 00/M01 A3023 RMK AO2

Observed Flight Rules
Dec-11 @ 08:55 UTC (16 minutes ago) Visual Flight Rules
Wind Visibility Clouds
Calm 10 miles
  • Clear skies
Temperatures Readings
Current 0°C / 32°F
Dewpoint -1°C / 30°F
Humidity 93%
Altimeter 30.23" Hg
Pressure 1024 hPa
Elevation 117
Observed Flight Rules
Dec-11 @ 08:55 UTC
(16 minutes ago)
VFR
Wind Visibility
Calm 10 miles
Clouds
  • Clear skies
Temperature Dewpoint
0°C / 32°F -1°C / 30°F
Humidity Altimeter Pressure
93% 30.23" Hg 1024 hPa